Thompson, Nebraska
Current Conditions -  °F | °C
As of 7:55 AM on Saturday 22 Nov 2014 (Local Time) from KHJH Reporting Station
Moderate Fog Moderate Fog  
Wind Chill: 34°   Ceiling: 300
Heat Index: 37°   Visibility: 0.5mi
Dew Point: 36°   Wind: 5mph
Humidity: 94%   Direction: 220°SW
Pressure: 29.88"   Gusts: NA
Location:  40.1696°N, 97.2152°W
Report Text: KHJH 221355Z AUTO 22004KT 1/2SM FG OVC003 03/02 A2988 RMK AO2 LTG DSNT S T00300021
Loading
Personal Weather Stations






























Interactive Weather Map New forecast layout! Learn more

10-Day Weather Forecast

Advertisements
Track Severe Weather on mobile